createdAt,value
2022-12-22T00:01:38.953Z,52.63
2022-12-22T00:04:29.070Z,33.30
2022-12-22T00:07:17.003Z,18.30
2022-12-22T00:10:02.409Z,36.87
2022-12-22T00:12:49.390Z,17.20
2022-12-22T00:15:38.380Z,29.93
2022-12-22T00:18:25.121Z,31.60
2022-12-22T00:21:11.283Z,47.33
2022-12-22T00:23:56.792Z,50.70
2022-12-22T00:27:11.804Z,96.03
2022-12-22T00:30:00.522Z,46.20
2022-12-22T00:32:53.835Z,41.87
2022-12-22T00:35:43.670Z,63.07
2022-12-22T00:38:35.371Z,55.13
2022-12-22T00:41:23.605Z,74.07
2022-12-22T00:44:09.792Z,65.70
2022-12-22T00:46:58.554Z,81.03
2022-12-22T00:49:47.883Z,54.20
2022-12-22T00:52:37.805Z,37.53
2022-12-22T00:55:32.171Z,11.70
2022-12-22T00:58:21.944Z,54.93
2022-12-22T01:01:17.049Z,58.80
2022-12-22T01:04:03.345Z,36.43
2022-12-22T01:06:56.230Z,77.37
2022-12-22T01:09:46.255Z,47.90
2022-12-22T01:12:34.870Z,41.53
2022-12-22T01:15:21.080Z,55.67
2022-12-22T01:18:09.799Z,50.37
2022-12-22T01:20:55.627Z,18.33
2022-12-22T01:23:43.201Z,26.13
2022-12-22T01:26:30.614Z,36.70
2022-12-22T01:29:16.212Z,31.90
2022-12-22T01:32:01.912Z,22.73
2022-12-22T01:34:48.101Z,19.40
2022-12-22T01:37:33.894Z,7.93
2022-12-22T01:40:20.951Z,30.23
2022-12-22T01:43:06.809Z,20.80
2022-12-22T01:45:56.297Z,7.03
2022-12-22T01:48:48.559Z,36.60
2022-12-22T01:51:38.403Z,23.57
2022-12-22T01:54:28.280Z,29.87
2022-12-22T01:57:22.084Z,13.07
2022-12-22T02:00:08.025Z,13.63
2022-12-22T02:02:56.512Z,14.53
2022-12-22T02:05:42.334Z,5.60
2022-12-22T02:08:39.835Z,6.87
2022-12-22T02:11:41.735Z,7.57
2022-12-22T02:14:39.105Z,7.43
2022-12-22T02:17:32.478Z,6.83
2022-12-22T02:20:57.409Z,7.27
2022-12-22T02:24:21.488Z,14.47
2022-12-22T02:27:13.149Z,5.80
2022-12-22T02:30:01.999Z,4.43
2022-12-22T02:32:52.893Z,5.23
2022-12-22T02:35:38.633Z,6.23
2022-12-22T02:38:31.880Z,13.60
2022-12-22T02:41:32.009Z,8.60
2022-12-22T02:44:36.253Z,5.57
2022-12-22T02:47:27.631Z,4.67
2022-12-22T02:50:16.902Z,5.13
2022-12-22T02:53:06.329Z,6.33
2022-12-22T02:55:52.859Z,4.10
2022-12-22T02:58:39.104Z,16.97
2022-12-22T03:01:27.006Z,6.00
2022-12-22T03:04:12.404Z,24.73
2022-12-22T03:06:57.871Z,8.50
2022-12-22T03:09:43.705Z,41.27
2022-12-22T03:12:29.099Z,31.87
2022-12-22T03:15:14.585Z,10.83
2022-12-22T03:18:04.630Z,33.00
2022-12-22T03:20:50.296Z,10.70
2022-12-22T03:23:35.866Z,32.60
2022-12-22T03:26:04.051Z,29.47
2022-12-22T03:28:32.274Z,33.13
2022-12-22T03:31:02.381Z,25.00
2022-12-22T03:33:33.688Z,34.87
2022-12-22T03:36:02.207Z,38.17
2022-12-22T03:38:31.077Z,55.67
2022-12-22T03:40:59.280Z,41.87
2022-12-22T03:43:45.273Z,31.87
2022-12-22T03:46:33.788Z,34.80
2022-12-22T03:49:11.549Z,42.63
2022-12-22T03:51:43.825Z,42.87
2022-12-22T03:54:14.820Z,35.50
2022-12-22T03:56:43.774Z,18.70
2022-12-22T03:59:12.754Z,24.27
2022-12-22T04:01:43.472Z,35.50
2022-12-22T04:04:14.099Z,29.93
2022-12-22T04:06:42.680Z,30.30
2022-12-22T04:09:11.315Z,45.07
2022-12-22T04:11:57.245Z,44.17
2022-12-22T04:14:33.143Z,38.47
2022-12-22T04:17:02.669Z,13.47
2022-12-22T04:19:33.028Z,32.67
2022-12-22T04:22:01.269Z,38.60
2022-12-22T04:24:29.767Z,37.97
2022-12-22T04:26:57.934Z,29.47
2022-12-22T04:29:26.188Z,20.27
2022-12-22T04:31:54.764Z,41.23
2022-12-22T04:34:23.160Z,44.80
2022-12-22T04:36:52.650Z,33.37
2022-12-22T04:39:20.813Z,38.77
2022-12-22T04:41:51.866Z,26.27
2022-12-22T04:44:20.049Z,18.30
2022-12-22T04:46:48.552Z,12.03
2022-12-22T04:49:16.789Z,9.43
2022-12-22T04:51:44.978Z,6.87
2022-12-22T04:54:14.566Z,11.67
2022-12-22T04:56:42.919Z,9.73
2022-12-22T04:59:11.375Z,7.33
2022-12-22T05:01:39.662Z,21.53
2022-12-22T05:04:07.846Z,19.87
2022-12-22T05:06:36.203Z,17.43
2022-12-22T05:09:11.616Z,19.37
2022-12-22T05:11:44.253Z,19.63
2022-12-22T05:14:12.403Z,8.03
2022-12-22T05:16:43.626Z,12.67
2022-12-22T05:19:15.715Z,7.50
2022-12-22T05:21:43.865Z,7.00
2022-12-22T05:24:11.989Z,7.73
2022-12-22T05:26:41.758Z,18.47
2022-12-22T05:29:11.992Z,20.40
2022-12-22T05:31:46.756Z,33.50
2022-12-22T05:34:15.505Z,31.70
2022-12-22T05:36:43.817Z,15.67
2022-12-22T05:39:11.977Z,27.07
2022-12-22T05:41:41.929Z,30.80
2022-12-22T05:44:10.528Z,7.40
2022-12-22T05:46:41.385Z,19.77
2022-12-22T05:49:10.295Z,34.43
2022-12-22T05:51:38.446Z,16.50
2022-12-22T05:54:06.516Z,38.70
2022-12-22T05:56:34.873Z,26.07
2022-12-22T05:59:04.811Z,33.97
2022-12-22T06:01:33.084Z,40.87
2022-12-22T06:04:01.518Z,49.07
2022-12-22T06:06:29.866Z,47.33
2022-12-22T06:08:58.437Z,58.93
2022-12-22T06:11:26.520Z,58.53
2022-12-22T06:13:54.663Z,40.97
2022-12-22T06:16:24.981Z,41.87
2022-12-22T06:18:53.334Z,22.00
2022-12-22T06:21:23.961Z,43.50
2022-12-22T06:23:54.984Z,42.03
2022-12-22T06:26:23.261Z,38.67
2022-12-22T06:28:51.384Z,48.77
2022-12-22T06:31:19.741Z,44.10
2022-12-22T06:33:49.362Z,65.80
2022-12-22T06:36:19.925Z,48.63
2022-12-22T06:38:48.135Z,47.87
2022-12-22T06:41:36.235Z,22.67
2022-12-22T06:44:03.349Z,23.33
2022-12-22T06:46:32.325Z,33.80
2022-12-22T06:49:07.413Z,13.43
2022-12-22T06:51:35.582Z,24.43
2022-12-22T06:54:03.680Z,30.40
2022-12-22T06:56:32.007Z,24.40
2022-12-22T06:59:01.591Z,11.33
2022-12-22T07:01:31.732Z,10.77
2022-12-22T07:04:07.240Z,8.43
2022-12-22T07:06:36.992Z,5.23
2022-12-22T07:09:11.013Z,5.73
2022-12-22T07:11:39.431Z,5.03
2022-12-22T07:14:08.873Z,4.37
2022-12-22T07:16:39.741Z,4.60
2022-12-22T07:19:09.568Z,5.80
2022-12-22T07:21:40.339Z,3.70
2022-12-22T07:24:12.318Z,4.73
2022-12-22T07:26:40.556Z,3.07
2022-12-22T07:29:08.695Z,3.40
2022-12-22T07:31:37.186Z,7.40
2022-12-22T07:34:05.760Z,5.70
2022-12-22T07:36:35.592Z,9.77
2022-12-22T07:39:03.842Z,2.83
2022-12-22T07:41:49.248Z,2.93
2022-12-22T07:44:17.328Z,71.97
2022-12-22T07:46:45.814Z,19.10
2022-12-22T07:49:31.930Z,3.37
2022-12-22T07:52:01.732Z,4.80
2022-12-22T07:54:30.068Z,2.97
2022-12-22T07:56:58.422Z,3.77
2022-12-22T07:59:29.461Z,3.70
2022-12-22T08:01:57.888Z,5.53
2022-12-22T08:04:26.471Z,5.10
2022-12-22T08:06:54.662Z,5.50
2022-12-22T08:09:27.389Z,5.30
2022-12-22T08:11:55.592Z,5.10
2022-12-22T08:14:25.782Z,11.93
2022-12-22T08:16:54.505Z,8.60
2022-12-22T08:19:22.925Z,24.37
2022-12-22T08:21:53.139Z,13.40
2022-12-22T08:24:23.225Z,42.37
2022-12-22T08:26:56.857Z,15.80
2022-12-22T08:29:28.270Z,14.27
2022-12-22T08:31:56.743Z,29.13
2022-12-22T08:34:26.387Z,9.53
2022-12-22T08:36:57.840Z,5.00
2022-12-22T08:39:29.915Z,5.53
2022-12-22T08:42:02.036Z,6.07
2022-12-22T08:44:31.424Z,7.13
2022-12-22T08:47:01.143Z,6.07
2022-12-22T08:49:29.554Z,6.10
2022-12-22T08:51:57.885Z,5.00
2022-12-22T08:54:30.782Z,5.63
2022-12-22T08:56:59.834Z,6.90
2022-12-22T08:59:28.171Z,6.30
2022-12-22T09:01:56.487Z,3.50
2022-12-22T09:04:25.653Z,3.80
2022-12-22T09:06:54.621Z,5.20
2022-12-22T09:09:23.205Z,2.00
2022-12-22T09:11:53.195Z,7.80
2022-12-22T09:14:21.788Z,5.30
2022-12-22T09:16:50.555Z,5.50
2022-12-22T09:19:19.605Z,7.90
2022-12-22T09:21:48.173Z,4.77
2022-12-22T09:24:17.507Z,5.17
2022-12-22T09:26:45.590Z,6.60
2022-12-22T09:29:17.084Z,5.73
2022-12-22T09:31:46.137Z,5.17
2022-12-22T09:34:17.936Z,4.20
2022-12-22T09:36:50.367Z,6.97
2022-12-22T09:39:25.018Z,4.27
2022-12-22T09:41:59.296Z,3.83
2022-12-22T09:44:34.478Z,4.57
2022-12-22T09:47:11.353Z,24.73
2022-12-22T09:49:39.691Z,7.03
2022-12-22T09:52:32.165Z,2.20
2022-12-22T09:55:00.672Z,2.53
2022-12-22T09:57:33.919Z,2.30
2022-12-22T10:00:16.661Z,2.27
2022-12-22T10:02:55.601Z,1.57
2022-12-22T10:05:38.369Z,2.30
2022-12-22T10:08:12.835Z,1.73
2022-12-22T10:10:41.775Z,1.43
2022-12-22T10:13:21.489Z,3.30
2022-12-22T10:15:52.156Z,3.40
2022-12-22T10:18:21.933Z,1.00
2022-12-22T10:21:11.283Z,1.53
2022-12-22T10:23:42.038Z,1.60
2022-12-22T10:26:30.730Z,1.50
2022-12-22T10:29:02.452Z,1.07
2022-12-22T10:31:34.122Z,0.90
2022-12-22T10:34:13.747Z,1.00
2022-12-22T10:36:47.904Z,0.90
2022-12-22T10:39:22.488Z,0.80
2022-12-22T10:41:52.884Z,0.70
2022-12-22T10:44:27.274Z,0.80
2022-12-22T10:46:58.937Z,0.90
2022-12-22T10:49:31.588Z,0.80
2022-12-22T10:52:12.810Z,1.10
2022-12-22T10:54:42.769Z,0.77
2022-12-22T10:57:33.429Z,0.80
2022-12-22T11:00:05.247Z,0.90
2022-12-22T11:02:39.669Z,0.90
2022-12-22T11:05:10.064Z,0.90
2022-12-22T11:07:40.302Z,0.90
2022-12-22T11:10:21.101Z,0.70
2022-12-22T11:13:04.094Z,0.70
2022-12-22T11:15:38.084Z,0.80
2022-12-22T11:18:22.124Z,0.80
2022-12-22T11:21:00.375Z,0.83
2022-12-22T11:23:35.124Z,0.90
2022-12-22T11:26:12.787Z,0.80
2022-12-22T11:28:57.786Z,0.83
2022-12-22T11:31:47.213Z,0.80
2022-12-22T11:34:33.636Z,0.80
2022-12-22T11:37:12.890Z,0.80
2022-12-22T11:39:45.241Z,1.10
2022-12-22T11:42:46.285Z,1.20
2022-12-22T11:45:42.710Z,1.10
2022-12-22T11:48:41.391Z,1.50
2022-12-22T11:51:27.129Z,1.77
2022-12-22T11:54:13.658Z,1.70
2022-12-22T11:56:43.881Z,1.80
2022-12-22T11:59:38.438Z,2.10
2022-12-22T12:02:45.707Z,2.53
2022-12-22T12:05:50.905Z,1.90
2022-12-22T12:08:32.043Z,1.70
2022-12-22T12:11:18.328Z,1.80
2022-12-22T12:13:55.517Z,1.90
2022-12-22T12:16:35.584Z,1.73
2022-12-22T12:19:44.167Z,1.90
2022-12-22T12:22:18.651Z,1.60
2022-12-22T12:25:01.392Z,1.80
2022-12-22T12:27:54.531Z,2.30
2022-12-22T12:30:40.320Z,1.90
2022-12-22T12:33:14.906Z,2.10
2022-12-22T12:35:51.670Z,2.03
2022-12-22T12:39:05.755Z,1.77
2022-12-22T12:41:25.792Z,1.60
2022-12-22T12:43:55.471Z,2.00
2022-12-22T12:46:47.638Z,1.50
2022-12-22T12:49:58.615Z,1.20
2022-12-22T12:53:05.141Z,1.20
2022-12-22T12:55:35.754Z,1.10
2022-12-22T12:58:07.066Z,1.10
2022-12-22T13:00:53.800Z,1.00
2022-12-22T13:06:51.958Z,1.40
2022-12-22T13:12:40.087Z,1.40
2022-12-22T13:15:31.653Z,1.20
2022-12-22T13:18:10.261Z,1.00
2022-12-22T13:20:42.529Z,1.00
2022-12-22T13:23:15.816Z,1.23
2022-12-22T13:25:50.877Z,1.07
2022-12-22T13:28:22.367Z,1.20
2022-12-22T13:30:58.163Z,1.40
2022-12-22T13:33:31.102Z,1.30
2022-12-22T13:36:04.243Z,1.50
2022-12-22T13:38:34.058Z,0.90
2022-12-22T13:41:05.525Z,1.10
2022-12-22T13:43:34.219Z,1.03
2022-12-22T13:46:05.978Z,1.03
2022-12-22T13:48:43.982Z,0.90
2022-12-22T13:51:19.743Z,0.80
2022-12-22T13:56:41.739Z,0.87
2022-12-22T13:59:22.578Z,0.83
2022-12-22T14:01:52.924Z,1.00
2022-12-22T14:04:21.417Z,1.20
2022-12-22T14:06:49.650Z,1.30
2022-12-22T14:09:19.622Z,1.00
2022-12-22T14:11:52.403Z,1.40
2022-12-22T14:14:26.759Z,1.67
2022-12-22T14:16:58.885Z,1.00
2022-12-22T14:19:29.215Z,1.20
2022-12-22T14:22:06.109Z,0.80
2022-12-22T14:24:39.542Z,1.03
2022-12-22T14:27:16.884Z,0.90
2022-12-22T14:29:46.405Z,1.00
2022-12-22T14:32:35.664Z,1.27
2022-12-22T14:35:03.959Z,1.00
2022-12-22T14:37:33.110Z,1.00
2022-12-22T14:40:01.669Z,1.20
2022-12-22T14:42:31.873Z,1.20
2022-12-22T14:45:00.265Z,1.07
2022-12-22T14:47:29.967Z,1.30
2022-12-22T14:50:01.010Z,1.40
2022-12-22T14:52:37.651Z,1.20
2022-12-22T14:55:19.264Z,1.27
2022-12-22T14:57:47.561Z,2.70
2022-12-22T15:00:31.451Z,1.50
2022-12-22T15:03:03.534Z,1.57
2022-12-22T15:05:35.324Z,1.93
2022-12-22T15:08:06.820Z,1.87
2022-12-22T15:10:40.865Z,2.83
2022-12-22T15:13:18.123Z,1.97
2022-12-22T15:15:46.294Z,2.47
2022-12-22T15:18:16.933Z,1.80
2022-12-22T15:20:45.282Z,2.50
2022-12-22T15:23:16.980Z,2.27
2022-12-22T15:25:45.835Z,1.87
2022-12-22T15:28:14.285Z,1.80
2022-12-22T15:30:43.094Z,1.40
2022-12-22T15:33:17.417Z,1.40
2022-12-22T15:35:46.281Z,1.47
2022-12-22T15:38:16.300Z,1.30
2022-12-22T15:40:44.774Z,1.20
2022-12-22T15:43:53.471Z,1.30
2022-12-22T15:46:03.372Z,1.10
2022-12-22T15:48:36.533Z,1.17
2022-12-22T15:51:07.219Z,1.60
2022-12-22T15:53:36.193Z,1.20
2022-12-22T15:56:04.796Z,1.27
2022-12-22T15:58:35.846Z,1.20
2022-12-22T16:01:05.806Z,1.70
2022-12-22T16:03:35.326Z,1.20
2022-12-22T16:06:03.744Z,2.03
2022-12-22T16:08:37.010Z,2.20
2022-12-22T16:11:05.575Z,3.73
2022-12-22T16:13:33.687Z,3.90
2022-12-22T16:16:02.117Z,2.70
2022-12-22T16:18:30.309Z,2.00
2022-12-22T16:21:07.860Z,2.30
2022-12-22T16:23:36.899Z,1.90
2022-12-22T16:26:05.945Z,2.40
2022-12-22T16:28:34.219Z,2.70
2022-12-22T16:31:02.625Z,4.23
2022-12-22T16:33:30.772Z,4.67
2022-12-22T16:36:00.207Z,7.90
2022-12-22T16:38:28.261Z,10.60
2022-12-22T16:40:56.375Z,5.73
2022-12-22T16:46:18.191Z,2.60
2022-12-22T16:48:48.946Z,2.50
2022-12-22T16:51:22.381Z,2.00
2022-12-22T16:53:50.521Z,2.10
2022-12-22T16:56:21.196Z,1.90
2022-12-22T16:58:49.725Z,2.30
2022-12-22T17:01:35.177Z,2.30
2022-12-22T17:04:07.624Z,3.03
2022-12-22T17:06:38.146Z,2.97
2022-12-22T17:09:08.561Z,2.40
2022-12-22T17:11:37.421Z,2.60
2022-12-22T17:14:16.413Z,2.97
2022-12-22T17:16:46.843Z,2.60
2022-12-22T17:19:15.168Z,3.90
2022-12-22T17:21:44.750Z,2.70
2022-12-22T17:24:15.895Z,2.53
2022-12-22T17:26:44.412Z,3.37
2022-12-22T17:29:15.924Z,3.43
2022-12-22T17:31:44.062Z,2.70
2022-12-22T17:34:16.535Z,4.47
2022-12-22T17:36:48.471Z,2.93
2022-12-22T17:39:19.298Z,2.87
2022-12-22T17:41:52.239Z,3.23
2022-12-22T17:44:26.035Z,3.20
2022-12-22T17:46:54.491Z,2.73
2022-12-22T17:49:23.239Z,2.90
2022-12-22T17:51:52.879Z,3.07
2022-12-22T17:54:24.016Z,2.83
2022-12-22T17:56:52.423Z,2.77
2022-12-22T17:59:20.497Z,2.77
2022-12-22T18:01:48.686Z,3.00
2022-12-22T18:04:16.967Z,2.97
2022-12-22T18:06:45.529Z,3.80
2022-12-22T18:09:21.730Z,2.77
2022-12-22T18:11:49.996Z,3.40
2022-12-22T18:14:18.413Z,2.73
2022-12-22T18:16:46.579Z,4.13
2022-12-22T18:19:14.714Z,3.80
2022-12-22T18:21:43.014Z,4.67
2022-12-22T18:24:18.170Z,5.13
2022-12-22T18:26:47.106Z,6.27
2022-12-22T18:29:16.007Z,4.60
2022-12-22T18:31:44.665Z,9.20
2022-12-22T18:34:13.031Z,8.13
2022-12-22T18:36:44.181Z,7.00
2022-12-22T18:39:20.339Z,4.90
2022-12-22T18:41:48.897Z,11.13
2022-12-22T18:44:18.207Z,7.00
2022-12-22T18:46:46.817Z,6.30
2022-12-22T18:49:15.598Z,6.73
2022-12-22T18:51:44.087Z,4.67
2022-12-22T18:54:25.664Z,4.47
2022-12-22T18:56:53.827Z,8.77
2022-12-22T18:59:24.975Z,6.10
2022-12-22T19:01:53.337Z,4.93
2022-12-22T19:04:21.808Z,5.60
2022-12-22T19:06:49.866Z,8.23
2022-12-22T19:09:17.963Z,10.57
2022-12-22T19:11:47.875Z,5.47
2022-12-22T19:14:19.417Z,6.27
2022-12-22T19:16:48.023Z,8.63
2022-12-22T19:22:08.093Z,40.10
2022-12-22T19:30:40.487Z,13.23
2022-12-22T19:51:22.696Z,8.23
2022-12-22T19:53:50.863Z,7.93
2022-12-22T19:56:25.171Z,7.87
2022-12-22T19:58:55.217Z,6.87
2022-12-22T20:01:23.700Z,7.43
2022-12-22T20:03:51.915Z,6.17
2022-12-22T20:06:20.077Z,7.57
2022-12-22T20:08:49.678Z,8.10
2022-12-22T20:11:20.460Z,7.83
2022-12-22T20:13:49.069Z,7.60
2022-12-22T20:16:18.362Z,8.80
2022-12-22T20:18:47.352Z,7.60
2022-12-22T20:21:19.103Z,7.80
2022-12-22T20:23:48.265Z,8.27
2022-12-22T20:26:21.174Z,9.43
2022-12-22T20:28:49.908Z,9.13
2022-12-22T20:31:20.016Z,11.07
2022-12-22T20:33:48.279Z,9.80
2022-12-22T20:36:22.903Z,13.97
2022-12-22T20:38:53.293Z,15.30
2022-12-22T20:41:23.174Z,8.37
2022-12-22T20:43:51.915Z,16.00
2022-12-22T20:46:22.417Z,12.53
2022-12-22T20:48:52.535Z,10.20
2022-12-22T20:51:21.780Z,9.23
2022-12-22T20:53:50.654Z,13.53
2022-12-22T20:56:24.132Z,10.20
2022-12-22T20:58:52.553Z,13.00
2022-12-22T21:01:20.807Z,18.40
2022-12-22T21:03:49.101Z,18.07
2022-12-22T21:06:25.936Z,22.37
2022-12-22T21:08:55.261Z,23.30
2022-12-22T21:11:25.459Z,22.50
2022-12-22T21:13:54.034Z,11.80
2022-12-22T21:16:24.197Z,14.77
2022-12-22T21:18:53.390Z,10.57
2022-12-22T21:21:21.967Z,10.23
2022-12-22T21:23:51.270Z,10.40
2022-12-22T21:26:23.959Z,9.47
2022-12-22T21:28:54.141Z,10.60
2022-12-22T21:31:22.631Z,8.40
2022-12-22T21:33:53.877Z,11.57
2022-12-22T21:36:24.834Z,17.77
2022-12-22T21:38:57.138Z,10.57
2022-12-22T21:41:45.781Z,19.70
2022-12-22T21:44:15.482Z,16.53
2022-12-22T21:46:45.882Z,22.43
2022-12-22T21:49:19.722Z,9.57
2022-12-22T21:51:47.998Z,28.20
2022-12-22T21:54:16.118Z,36.17
2022-12-22T21:56:44.681Z,23.70
2022-12-22T21:59:14.240Z,34.73
2022-12-22T22:01:43.361Z,9.10
2022-12-22T22:04:12.130Z,10.43
2022-12-22T22:06:40.425Z,8.33
2022-12-22T22:09:09.111Z,8.97
2022-12-22T22:12:00.234Z,9.70
2022-12-22T22:14:29.836Z,8.93
2022-12-22T22:16:57.963Z,7.00
2022-12-22T22:19:26.201Z,7.73
2022-12-22T22:21:54.492Z,8.83
2022-12-22T22:24:22.747Z,7.10
2022-12-22T22:26:51.753Z,7.53
2022-12-22T22:29:20.157Z,8.80
2022-12-22T22:31:49.977Z,8.80
2022-12-22T22:34:18.338Z,8.67
2022-12-22T22:36:46.885Z,8.07
2022-12-22T22:39:15.481Z,17.20
2022-12-22T22:41:44.055Z,23.00
2022-12-22T22:44:12.647Z,24.93
2022-12-22T22:46:42.063Z,16.13
2022-12-22T22:49:12.055Z,35.40
2022-12-22T22:51:40.695Z,24.10
2022-12-22T22:54:11.280Z,27.63
2022-12-22T22:56:40.386Z,26.20
2022-12-22T22:59:09.900Z,29.63
2022-12-22T23:01:39.838Z,24.80
2022-12-22T23:04:08.521Z,25.90
2022-12-22T23:06:40.419Z,42.30
2022-12-22T23:09:08.776Z,25.67
2022-12-22T23:11:37.433Z,19.77
2022-12-22T23:14:06.545Z,23.03
2022-12-22T23:16:38.392Z,13.63
2022-12-22T23:19:08.190Z,4.47
2022-12-22T23:21:37.694Z,4.60
2022-12-22T23:24:06.830Z,7.07
2022-12-22T23:26:35.534Z,10.40
2022-12-22T23:29:04.208Z,14.50
2022-12-22T23:31:33.470Z,6.83
2022-12-22T23:34:02.082Z,10.10
2022-12-22T23:36:31.647Z,5.53
2022-12-22T23:39:01.483Z,5.70
2022-12-22T23:41:30.273Z,5.43
2022-12-22T23:43:58.663Z,6.20
2022-12-22T23:46:27.296Z,5.90
2022-12-22T23:48:57.744Z,6.03
2022-12-22T23:51:28.202Z,6.07
2022-12-22T23:53:57.166Z,5.40
2022-12-22T23:56:27.077Z,5.67
2022-12-22T23:58:55.415Z,4.73
